createdAt,value
2023-07-28T00:02:02.449Z,100463.03
2023-07-28T00:04:29.002Z,100470.84
2023-07-28T00:06:55.502Z,100461.91
2023-07-28T00:09:23.841Z,100471.81
2023-07-28T00:11:50.380Z,100463.03
2023-07-28T00:14:16.826Z,100467.19
2023-07-28T00:16:43.460Z,100470.00
2023-07-28T00:19:10.075Z,100464.72
2023-07-28T00:21:36.583Z,100460.25
2023-07-28T00:24:03.158Z,100457.44
2023-07-28T00:26:29.700Z,100452.97
2023-07-28T00:28:56.174Z,100451.31
2023-07-28T00:31:22.698Z,100458.25
2023-07-28T00:33:49.305Z,100450.50
2023-07-28T00:36:15.859Z,100449.66
2023-07-28T00:38:42.538Z,100448.97
2023-07-28T00:41:09.965Z,100444.69
2023-07-28T00:43:36.619Z,100456.09
2023-07-28T00:46:03.371Z,100454.44
2023-07-28T00:48:30.284Z,100452.75
2023-07-28T00:50:56.953Z,100449.97
2023-07-28T00:53:24.903Z,100443.84
2023-07-28T00:55:52.449Z,100447.47
2023-07-28T00:58:19.884Z,100443.97
2023-07-28T01:00:46.585Z,100435.22
2023-07-28T01:03:13.179Z,100441.34
2023-07-28T01:05:52.092Z,100445.97
2023-07-28T01:08:36.271Z,100449.56
2023-07-28T01:11:02.787Z,100458.38
2023-07-28T01:13:29.308Z,100453.09
2023-07-28T01:15:56.139Z,100456.56
2023-07-28T01:18:22.856Z,100458.38
2023-07-28T01:20:56.491Z,100461.16
2023-07-28T01:24:05.017Z,100455.03
2023-07-28T01:26:42.191Z,100453.38
2023-07-28T01:29:10.229Z,100458.81
2023-07-28T01:31:36.989Z,100471.22
2023-07-28T01:34:03.618Z,100462.28
2023-07-28T01:36:30.184Z,100473.69
2023-07-28T01:38:56.815Z,100470.09
2023-07-28T01:41:23.443Z,100468.25
2023-07-28T01:43:50.099Z,100474.38
2023-07-28T01:46:16.669Z,100477.84
2023-07-28T01:48:43.246Z,100473.38
2023-07-28T01:51:10.450Z,100470.91
2023-07-28T01:53:36.963Z,100462.97
2023-07-28T01:56:03.767Z,100469.25
2023-07-28T01:58:30.357Z,100469.09
2023-07-28T02:00:56.941Z,100467.44
2023-07-28T02:03:23.816Z,100464.78
2023-07-28T02:05:50.979Z,100469.09
2023-07-28T02:08:17.522Z,100464.78
2023-07-28T02:10:45.708Z,100467.44
2023-07-28T02:13:12.338Z,100472.84
2023-07-28T02:15:41.123Z,100480.97
2023-07-28T02:18:08.290Z,100475.66
2023-07-28T02:20:36.804Z,100475.66
2023-07-28T02:23:03.950Z,100469.56
2023-07-28T02:25:30.650Z,100463.44
2023-07-28T02:27:57.379Z,100467.03
2023-07-28T02:30:23.993Z,100465.38
2023-07-28T02:32:50.585Z,100474.31
2023-07-28T02:35:19.292Z,100463.72
2023-07-28T02:37:47.685Z,100456.75
2023-07-28T02:40:14.366Z,100459.41
2023-07-28T02:42:40.962Z,100467.34
2023-07-28T02:45:08.157Z,100473.47
2023-07-28T02:47:34.746Z,100474.31
2023-07-28T02:50:01.449Z,100485.72
2023-07-28T02:52:28.026Z,100481.25
2023-07-28T02:54:56.887Z,100484.91
2023-07-28T02:57:23.382Z,100480.44
2023-07-28T02:59:49.944Z,100492.66
2023-07-28T03:02:16.611Z,100491.69
2023-07-28T03:04:43.180Z,100487.38
2023-07-28T03:07:09.764Z,100492.53
2023-07-28T03:09:36.267Z,100494.31
2023-07-28T03:12:03.891Z,100490.84
2023-07-28T03:14:30.625Z,100497.13
2023-07-28T03:16:57.215Z,100495.47
2023-07-28T03:19:23.900Z,100493.78
2023-07-28T03:21:50.518Z,100499.91
2023-07-28T03:24:17.032Z,100508.84
2023-07-28T03:26:43.554Z,100508.00
2023-07-28T03:29:10.134Z,100508.84
2023-07-28T03:31:36.897Z,100505.38
2023-07-28T03:34:04.676Z,100509.97
2023-07-28T03:36:31.245Z,100516.09
2023-07-28T03:38:57.778Z,100515.25
2023-07-28T03:41:24.343Z,100511.66
2023-07-28T03:43:50.971Z,100515.94
2023-07-28T03:46:17.602Z,100522.88
2023-07-28T03:48:44.113Z,100524.72
2023-07-28T03:51:10.640Z,100521.94
2023-07-28T03:53:38.750Z,100524.56
2023-07-28T03:56:05.771Z,100517.47
2023-07-28T03:58:32.856Z,100515.66
2023-07-28T04:00:59.522Z,100518.28
2023-07-28T04:03:26.117Z,100522.59
2023-07-28T04:05:52.683Z,100519.13
2023-07-28T04:08:19.207Z,100519.13
2023-07-28T04:10:45.707Z,100515.78
2023-07-28T04:13:12.275Z,100527.22
2023-07-28T04:15:38.780Z,100525.25
2023-07-28T04:18:05.423Z,100525.25
2023-07-28T04:20:32.013Z,100525.09
2023-07-28T04:22:58.639Z,100524.13
2023-07-28T04:25:25.119Z,100520.47
2023-07-28T04:27:51.718Z,100519.66
2023-07-28T04:30:18.384Z,100521.31
2023-07-28T04:32:44.975Z,100528.28
2023-07-28T04:35:11.594Z,100532.59
2023-07-28T04:37:38.132Z,100535.22
2023-07-28T04:40:05.173Z,100534.41
2023-07-28T04:42:31.690Z,100529.94
2023-07-28T04:44:58.223Z,100540.53
2023-07-28T04:47:24.795Z,100540.69
2023-07-28T04:49:51.307Z,100539.69
2023-07-28T04:52:17.841Z,100541.34
2023-07-28T04:54:44.404Z,100539.53
2023-07-28T04:57:11.932Z,100543.03
2023-07-28T04:59:40.200Z,100544.00
2023-07-28T05:02:07.625Z,100546.66
2023-07-28T05:04:34.262Z,100544.16
2023-07-28T05:07:00.854Z,100546.66
2023-07-28T05:09:29.162Z,100550.00
2023-07-28T05:11:56.165Z,100546.22
2023-07-28T05:14:22.815Z,100546.88
2023-07-28T05:16:49.508Z,100539.63
2023-07-28T05:19:16.245Z,100546.97
2023-07-28T05:21:42.805Z,100549.34
2023-07-28T05:24:09.752Z,100549.34
2023-07-28T05:26:36.295Z,100551.00
2023-07-28T05:29:02.815Z,100546.53
2023-07-28T05:31:29.293Z,100539.94
2023-07-28T05:33:55.948Z,100538.50
2023-07-28T05:36:22.586Z,100538.91
2023-07-28T05:38:49.257Z,100538.91
2023-07-28T05:41:16.625Z,100542.53
2023-07-28T05:43:43.297Z,100546.84
2023-07-28T05:46:09.946Z,100542.78
2023-07-28T05:48:36.547Z,100545.81
2023-07-28T05:51:03.300Z,100554.72
2023-07-28T05:53:30.417Z,100559.19
2023-07-28T05:55:56.944Z,100560.25
2023-07-28T05:58:24.088Z,100561.63
2023-07-28T06:00:50.836Z,100562.59
2023-07-28T06:03:17.700Z,100568.56
2023-07-28T06:05:44.364Z,100566.59
2023-07-28T06:08:10.864Z,100567.59
2023-07-28T06:10:38.181Z,100570.22
2023-07-28T06:13:04.765Z,100576.22
2023-07-28T06:15:31.400Z,100576.22
2023-07-28T06:17:58.237Z,100568.94
2023-07-28T06:20:25.364Z,100577.94
2023-07-28T06:22:51.957Z,100572.41
2023-07-28T06:25:18.732Z,100584.09
2023-07-28T06:27:45.282Z,100582.06
2023-07-28T06:30:12.307Z,100580.75
2023-07-28T06:32:38.924Z,100585.53
2023-07-28T06:35:08.168Z,100588.03
2023-07-28T06:37:36.131Z,100591.50
2023-07-28T06:40:02.777Z,100585.69
2023-07-28T06:42:29.313Z,100592.44
2023-07-28T06:44:55.890Z,100602.34
2023-07-28T06:47:22.419Z,100606.69
2023-07-28T06:49:49.840Z,100622.19
2023-07-28T06:52:16.376Z,100617.59
2023-07-28T06:54:42.947Z,100619.53
2023-07-28T06:57:09.643Z,100612.59
2023-07-28T06:59:36.301Z,100617.06
2023-07-28T07:02:02.940Z,100622.19
2023-07-28T07:04:29.512Z,100631.28
2023-07-28T07:06:56.116Z,100621.50
2023-07-28T07:09:22.643Z,100634.44
2023-07-28T07:11:49.415Z,100624.84
2023-07-28T07:14:15.914Z,100631.78
2023-07-28T07:16:42.697Z,100633.53
2023-07-28T07:19:10.115Z,100636.19
2023-07-28T07:21:37.023Z,100638.19
2023-07-28T07:24:05.266Z,100633.00
2023-07-28T07:26:34.622Z,100640.66
2023-07-28T07:29:01.258Z,100637.53
2023-07-28T07:31:28.172Z,100647.69
2023-07-28T07:33:54.689Z,100642.91
2023-07-28T07:36:21.419Z,100640.78
2023-07-28T07:38:49.783Z,100646.91
2023-07-28T07:41:22.632Z,100651.53
2023-07-28T07:43:50.767Z,100656.69
2023-07-28T07:46:17.483Z,100656.69
2023-07-28T07:48:44.319Z,100666.16
2023-07-28T07:51:10.893Z,100661.81
2023-07-28T07:53:37.499Z,100662.91
2023-07-28T07:56:04.843Z,100673.09
2023-07-28T07:58:31.859Z,100677.66
2023-07-28T08:00:58.419Z,100671.09
2023-07-28T08:03:25.169Z,100678.16
2023-07-28T08:05:52.603Z,100679.72
2023-07-28T08:08:20.757Z,100677.88
2023-07-28T08:10:48.326Z,100682.56
2023-07-28T08:13:15.818Z,100682.28
2023-07-28T08:15:46.189Z,100679.81
2023-07-28T08:18:14.073Z,100682.25
2023-07-28T08:20:40.814Z,100679.47
2023-07-28T08:23:07.472Z,100678.38
2023-07-28T08:25:35.552Z,100678.56
2023-07-28T08:28:02.663Z,100682.25
2023-07-28T08:30:29.410Z,100678.56
2023-07-28T08:32:55.917Z,100683.69
2023-07-28T08:35:22.494Z,100681.66
2023-07-28T08:37:48.943Z,100688.13
2023-07-28T08:40:15.669Z,100697.09
2023-07-28T08:42:42.205Z,100694.16
2023-07-28T08:45:09.555Z,100695.19
2023-07-28T08:47:38.182Z,100693.03
2023-07-28T08:50:07.116Z,100694.69
2023-07-28T08:52:33.946Z,100691.50
2023-07-28T08:55:00.503Z,100699.84
2023-07-28T08:57:28.342Z,100693.53
2023-07-28T08:59:55.541Z,100699.50
2023-07-28T09:02:22.752Z,100707.31
2023-07-28T09:04:50.164Z,100700.34
2023-07-28T09:07:16.719Z,100706.50
2023-07-28T09:09:43.687Z,100702.66
2023-07-28T09:12:10.303Z,100704.50
2023-07-28T09:14:38.146Z,100707.00
2023-07-28T09:17:13.980Z,100706.66
2023-07-28T09:19:54.437Z,100709.81
2023-07-28T09:22:21.633Z,100702.44
2023-07-28T09:24:49.016Z,100714.84
2023-07-28T09:27:24.280Z,100714.31
2023-07-28T09:29:58.828Z,100715.00
2023-07-28T09:32:34.055Z,100712.31
2023-07-28T09:35:10.584Z,100713.97
2023-07-28T09:37:40.467Z,100712.69
2023-07-28T09:40:14.772Z,100716.44
2023-07-28T09:42:51.036Z,100717.38
2023-07-28T09:45:36.570Z,100719.09
2023-07-28T09:48:10.358Z,100714.53
2023-07-28T09:50:39.650Z,100712.66
2023-07-28T09:53:09.738Z,100717.09
2023-07-28T09:55:40.646Z,100716.47
2023-07-28T09:58:11.195Z,100714.34
2023-07-28T10:00:38.562Z,100710.25
2023-07-28T10:03:05.597Z,100710.06
2023-07-28T10:05:33.826Z,100705.91
2023-07-28T10:08:01.040Z,100710.22
2023-07-28T10:10:28.122Z,100710.03
2023-07-28T10:12:58.172Z,100705.28
2023-07-28T10:15:30.937Z,100706.94
2023-07-28T10:17:59.982Z,100704.34
2023-07-28T10:20:40.549Z,100709.13
2023-07-28T10:23:16.720Z,100701.78
2023-07-28T10:25:45.473Z,100710.06
2023-07-28T10:28:33.326Z,100713.81
2023-07-28T10:31:00.957Z,100717.47
2023-07-28T10:33:31.334Z,100710.50
2023-07-28T10:36:00.368Z,100702.34
2023-07-28T10:38:35.748Z,100700.91
2023-07-28T10:41:19.771Z,100704.34
2023-07-28T10:43:47.288Z,100704.38
2023-07-28T10:46:17.881Z,100712.38
2023-07-28T10:48:47.056Z,100708.03
2023-07-28T10:51:21.884Z,100702.00
2023-07-28T10:53:51.698Z,100704.50
2023-07-28T10:56:19.898Z,100717.72
2023-07-28T10:58:46.401Z,100715.50
2023-07-28T11:01:13.057Z,100711.22
2023-07-28T11:03:41.212Z,100715.50
2023-07-28T11:06:07.845Z,100724.03
2023-07-28T11:08:36.319Z,100725.00
2023-07-28T11:11:05.241Z,100726.63
2023-07-28T11:13:40.830Z,100728.50
2023-07-28T11:16:09.090Z,100730.34
2023-07-28T11:18:35.602Z,100733.00
2023-07-28T11:21:02.135Z,100733.81
2023-07-28T11:23:29.779Z,100730.63
2023-07-28T11:25:56.436Z,100734.94
2023-07-28T11:28:23.057Z,100735.28
2023-07-28T11:30:49.916Z,100730.50
2023-07-28T11:33:16.628Z,100740.81
2023-07-28T11:35:45.735Z,100740.75
2023-07-28T11:38:13.679Z,100740.44
2023-07-28T11:40:40.887Z,100753.69
2023-07-28T11:43:07.792Z,100745.78
2023-07-28T11:45:34.363Z,100738.56
2023-07-28T11:48:07.052Z,100737.34
2023-07-28T11:50:39.850Z,100735.25
2023-07-28T11:53:07.535Z,100736.97
2023-07-28T11:55:37.748Z,100737.63
2023-07-28T11:58:06.441Z,100744.59
2023-07-28T12:00:37.286Z,100740.97
2023-07-28T12:03:14.544Z,100738.63
2023-07-28T12:06:13.398Z,100739.44
2023-07-28T12:08:41.088Z,100741.16
2023-07-28T12:19:15.298Z,100742.72
2023-07-28T12:21:42.360Z,100739.00
2023-07-28T12:24:09.011Z,100738.50
2023-07-28T12:26:38.000Z,100744.94
2023-07-28T12:31:45.978Z,100749.00
2023-07-28T12:34:25.406Z,100740.91
2023-07-28T12:36:54.397Z,100739.63
2023-07-28T12:42:13.938Z,100741.19
2023-07-28T12:47:12.164Z,100733.53
2023-07-28T12:49:38.777Z,100747.06
2023-07-28T12:52:19.679Z,100738.81
2023-07-28T12:54:46.787Z,100753.34
2023-07-28T12:57:14.017Z,100744.41
2023-07-28T13:02:20.429Z,100753.16
2023-07-28T13:04:46.887Z,100753.16
2023-07-28T13:09:43.130Z,100746.84
2023-07-28T13:14:39.303Z,100743.28
2023-07-28T13:17:07.473Z,100747.78
2023-07-28T13:19:34.079Z,100752.28
2023-07-28T13:22:00.660Z,100758.38
2023-07-28T13:24:30.627Z,100749.06
2023-07-28T13:26:58.207Z,100757.34
2023-07-28T13:29:27.613Z,100751.41
2023-07-28T13:32:02.398Z,100750.88
2023-07-28T13:34:29.165Z,100755.09
2023-07-28T13:36:56.708Z,100745.94
2023-07-28T13:39:24.708Z,100755.44
2023-07-28T13:41:51.492Z,100753.63
2023-07-28T13:44:18.069Z,100752.34
2023-07-28T13:46:44.692Z,100746.97
2023-07-28T13:49:11.474Z,100744.94
2023-07-28T13:59:19.056Z,100742.16
2023-07-28T14:01:45.619Z,100746.44
2023-07-28T14:04:12.387Z,100743.75
2023-07-28T14:06:39.413Z,100736.19
2023-07-28T14:09:05.955Z,100734.38
2023-07-28T14:11:32.596Z,100733.06
2023-07-28T14:13:59.183Z,100730.53
2023-07-28T14:16:25.946Z,100726.03
2023-07-28T14:18:52.584Z,100734.09
2023-07-28T14:21:19.598Z,100733.28
2023-07-28T14:23:46.076Z,100734.69
2023-07-28T14:26:15.659Z,100736.91
2023-07-28T14:28:42.387Z,100742.47
2023-07-28T14:31:09.042Z,100740.19
2023-07-28T14:33:35.659Z,100743.00
2023-07-28T14:36:02.134Z,100738.09
2023-07-28T14:38:28.718Z,100742.94
2023-07-28T14:40:55.214Z,100741.47
2023-07-28T14:43:30.544Z,100745.88
2023-07-28T14:45:57.095Z,100749.69
2023-07-28T14:48:23.639Z,100750.22
2023-07-28T14:50:50.188Z,100755.69
2023-07-28T14:53:49.505Z,100752.34
2023-07-28T14:56:17.978Z,100750.09
2023-07-28T14:58:44.903Z,100748.66
2023-07-28T15:01:12.285Z,100745.97
2023-07-28T15:03:39.890Z,100754.41
2023-07-28T15:06:06.677Z,100757.19
2023-07-28T15:08:33.458Z,100756.59
2023-07-28T15:11:00.670Z,100753.69
2023-07-28T15:13:27.473Z,100751.09
2023-07-28T15:15:55.523Z,100758.09
2023-07-28T15:18:22.172Z,100748.19
2023-07-28T15:20:48.846Z,100750.22
2023-07-28T15:23:15.432Z,100751.81
2023-07-28T15:25:46.995Z,100747.81
2023-07-28T15:28:15.015Z,100750.47
2023-07-28T15:30:46.362Z,100747.53
2023-07-28T15:33:13.890Z,100752.00
2023-07-28T15:35:40.559Z,100751.03
2023-07-28T15:38:07.307Z,100752.50
2023-07-28T15:40:34.087Z,100754.28
2023-07-28T15:43:00.684Z,100750.09
2023-07-28T15:45:27.539Z,100747.09
2023-07-28T15:47:54.111Z,100748.56
2023-07-28T15:50:20.829Z,100752.13
2023-07-28T15:52:48.202Z,100758.88
2023-07-28T15:55:14.846Z,100756.78
2023-07-28T15:57:41.642Z,100756.91
2023-07-28T16:00:11.099Z,100749.84
2023-07-28T16:02:38.125Z,100758.50
2023-07-28T16:05:05.227Z,100757.59
2023-07-28T16:07:33.647Z,100758.50
2023-07-28T16:10:00.831Z,100761.91
2023-07-28T16:12:27.520Z,100761.66
2023-07-28T16:14:55.594Z,100758.72
2023-07-28T16:17:22.660Z,100759.72
2023-07-28T16:19:49.262Z,100762.84
2023-07-28T16:22:15.808Z,100762.13
2023-07-28T16:24:42.852Z,100751.41
2023-07-28T16:27:10.493Z,100755.19
2023-07-28T16:29:37.110Z,100758.03
2023-07-28T16:32:03.646Z,100749.84
2023-07-28T16:34:30.446Z,100748.47
2023-07-28T16:36:56.983Z,100746.06
2023-07-28T16:39:23.543Z,100755.56
2023-07-28T16:41:51.115Z,100749.38
2023-07-28T16:44:17.757Z,100758.13
2023-07-28T16:46:44.265Z,100757.81
2023-07-28T16:49:10.832Z,100757.34
2023-07-28T16:51:37.862Z,100769.41
2023-07-28T16:54:04.571Z,100768.03
2023-07-28T16:56:31.119Z,100765.09
2023-07-28T16:58:57.641Z,100773.69
2023-07-28T17:01:27.141Z,100767.13
2023-07-28T17:03:53.693Z,100768.78
2023-07-28T17:06:20.218Z,100770.28
2023-07-28T17:08:48.226Z,100764.75
2023-07-28T17:11:15.059Z,100767.66
2023-07-28T17:13:41.605Z,100764.78
2023-07-28T17:16:08.185Z,100759.06
2023-07-28T17:18:34.725Z,100771.81
2023-07-28T17:21:01.334Z,100769.72
2023-07-28T17:23:28.149Z,100771.97
2023-07-28T17:25:54.772Z,100764.00
2023-07-28T17:28:21.456Z,100764.00
2023-07-28T17:30:48.616Z,100759.63
2023-07-28T17:33:15.303Z,100752.66
2023-07-28T17:35:41.957Z,100757.44
2023-07-28T17:38:09.754Z,100766.94
2023-07-28T17:40:36.258Z,100753.13
2023-07-28T17:43:02.782Z,100753.66
2023-07-28T17:45:29.348Z,100759.97
2023-07-28T17:47:55.854Z,100763.63
2023-07-28T17:50:22.604Z,100759.28
2023-07-28T17:52:50.597Z,100758.09
2023-07-28T17:55:18.208Z,100754.63
2023-07-28T17:57:45.759Z,100756.06
2023-07-28T18:00:18.642Z,100754.22
2023-07-28T18:02:46.353Z,100750.75
2023-07-28T18:05:15.658Z,100750.59
2023-07-28T18:07:42.294Z,100755.31
2023-07-28T18:10:09.666Z,100765.00
2023-07-28T18:12:36.452Z,100763.78
2023-07-28T18:15:07.538Z,100754.16
2023-07-28T18:17:34.783Z,100752.69
2023-07-28T18:20:01.461Z,100754.41
2023-07-28T18:22:28.350Z,100760.59
2023-07-28T18:24:55.745Z,100752.56
2023-07-28T18:27:22.353Z,100760.06
2023-07-28T18:29:49.690Z,100759.53
2023-07-28T18:32:16.250Z,100765.06
2023-07-28T18:34:42.912Z,100761.13
2023-07-28T18:37:09.711Z,100760.00
2023-07-28T18:39:38.327Z,100759.53
2023-07-28T18:42:05.692Z,100761.31
2023-07-28T18:44:32.439Z,100761.47
2023-07-28T18:47:00.714Z,100761.47
2023-07-28T18:49:27.481Z,100759.16
2023-07-28T18:51:54.147Z,100764.16
2023-07-28T18:54:22.220Z,100761.00
2023-07-28T18:56:49.668Z,100763.66
2023-07-28T18:59:16.992Z,100767.84
2023-07-28T19:01:43.668Z,100770.34
2023-07-28T19:04:11.360Z,100773.00
2023-07-28T19:06:52.165Z,100778.50
2023-07-28T19:09:19.761Z,100779.66
2023-07-28T19:11:46.321Z,100768.38
2023-07-28T19:14:12.843Z,100772.31
2023-07-28T19:16:39.608Z,100770.19
2023-07-28T19:19:06.252Z,100779.63
2023-07-28T19:21:32.898Z,100781.47
2023-07-28T19:23:59.462Z,100782.13
2023-07-28T19:26:26.218Z,100782.78
2023-07-28T19:28:53.801Z,100780.25
2023-07-28T19:31:21.479Z,100773.91
2023-07-28T19:33:48.345Z,100781.56
2023-07-28T19:36:15.451Z,100771.75
2023-07-28T19:38:42.146Z,100776.56
2023-07-28T19:41:12.915Z,100780.53
2023-07-28T19:43:39.883Z,100781.19
2023-07-28T19:46:06.552Z,100778.16
2023-07-28T19:48:33.276Z,100783.28
2023-07-28T19:51:21.198Z,100785.44
2023-07-28T19:53:50.811Z,100794.72
2023-07-28T19:56:20.568Z,100788.75
2023-07-28T19:58:47.128Z,100797.03
2023-07-28T20:01:14.364Z,100792.03
2023-07-28T20:03:41.075Z,100791.53
2023-07-28T20:06:08.645Z,100792.69
2023-07-28T20:08:36.673Z,100798.47
2023-07-28T20:11:05.475Z,100800.44
2023-07-28T20:13:32.060Z,100791.13
2023-07-28T20:15:59.679Z,100798.09
2023-07-28T20:18:26.547Z,100797.09
2023-07-28T20:20:53.234Z,100796.97
2023-07-28T20:23:20.411Z,100789.66
2023-07-28T20:25:47.411Z,100793.69
2023-07-28T20:28:14.257Z,100788.03
2023-07-28T20:30:40.984Z,100796.47
2023-07-28T20:33:07.593Z,100801.59
2023-07-28T20:35:39.851Z,100798.72
2023-07-28T20:38:07.274Z,100791.91
2023-07-28T20:40:33.983Z,100793.91
2023-07-28T20:43:00.776Z,100796.56
2023-07-28T20:45:27.532Z,100802.63
2023-07-28T20:47:54.160Z,100797.56
2023-07-28T20:50:20.762Z,100797.22
2023-07-28T20:52:47.822Z,100801.00
2023-07-28T20:55:14.326Z,100801.47
2023-07-28T20:57:41.098Z,100800.94
2023-07-28T21:00:09.094Z,100813.03
2023-07-28T21:02:36.274Z,100806.19
2023-07-28T21:05:03.743Z,100807.19
2023-07-28T21:07:30.630Z,100805.50
2023-07-28T21:09:57.152Z,100801.19
2023-07-28T21:12:47.962Z,100804.31
2023-07-28T21:15:17.581Z,100804.03
2023-07-28T21:17:44.539Z,100796.00
2023-07-28T21:20:14.145Z,100803.88
2023-07-28T21:22:40.838Z,100797.53
2023-07-28T21:25:08.416Z,100802.81
2023-07-28T21:27:36.122Z,100797.22
2023-07-28T21:30:03.784Z,100805.47
2023-07-28T21:32:30.373Z,100804.13
2023-07-28T21:34:56.951Z,100805.94
2023-07-28T21:37:25.483Z,100800.09
2023-07-28T21:39:52.017Z,100803.03
2023-07-28T21:42:18.574Z,100802.84
2023-07-28T21:44:45.304Z,100797.47
2023-07-28T21:47:11.842Z,100797.69
2023-07-28T21:49:38.392Z,100794.19
2023-07-28T21:52:05.315Z,100791.69
2023-07-28T21:54:31.854Z,100786.03
2023-07-28T21:56:58.741Z,100786.03
2023-07-28T21:59:26.452Z,100786.13
2023-07-28T22:01:53.225Z,100779.47
2023-07-28T22:04:20.040Z,100781.72
2023-07-28T22:06:46.946Z,100776.06
2023-07-28T22:09:13.528Z,100781.81
2023-07-28T22:11:43.187Z,100772.47
2023-07-28T22:14:12.877Z,100780.72
2023-07-28T22:16:42.202Z,100785.19
2023-07-28T22:19:09.458Z,100775.75
2023-07-28T22:21:38.181Z,100779.91
2023-07-28T22:24:08.785Z,100784.38
2023-07-28T22:26:35.948Z,100777.94
2023-07-28T22:29:03.033Z,100778.78
2023-07-28T22:31:29.720Z,100778.25
2023-07-28T22:33:56.982Z,100786.13
2023-07-28T22:36:23.714Z,100791.31
2023-07-28T22:38:50.271Z,100779.47
2023-07-28T22:41:16.916Z,100778.41
2023-07-28T22:43:43.550Z,100775.22
2023-07-28T22:46:10.252Z,100776.34
2023-07-28T22:48:36.950Z,100770.50
2023-07-28T22:51:06.596Z,100770.97
2023-07-28T22:53:34.098Z,100773.47
2023-07-28T22:56:00.785Z,100772.91
2023-07-28T22:58:28.088Z,100779.47
2023-07-28T23:00:55.507Z,100772.66
2023-07-28T23:03:22.073Z,100777.97
2023-07-28T23:05:48.683Z,100767.22
2023-07-28T23:08:15.281Z,100762.78
2023-07-28T23:10:47.215Z,100766.25
2023-07-28T23:13:16.966Z,100770.00
2023-07-28T23:15:43.743Z,100773.66
2023-07-28T23:18:10.315Z,100766.00
2023-07-28T23:20:36.942Z,100765.31
2023-07-28T23:23:04.669Z,100771.59
2023-07-28T23:25:34.420Z,100766.56
2023-07-28T23:28:01.125Z,100766.56
2023-07-28T23:30:28.578Z,100769.63
2023-07-28T23:32:55.255Z,100763.97
2023-07-28T23:35:21.896Z,100767.84
2023-07-28T23:37:49.037Z,100766.66
2023-07-28T23:40:15.685Z,100766.94
2023-07-28T23:42:43.352Z,100766.38
2023-07-28T23:45:10.569Z,100766.38
2023-07-28T23:47:37.435Z,100769.44
2023-07-28T23:50:04.249Z,100764.59
2023-07-28T23:52:31.119Z,100767.53
2023-07-28T23:54:58.459Z,100764.88
2023-07-28T23:57:25.015Z,100773.94
2023-07-28T23:59:51.532Z,100754.75
